sensor_id;sensor_type;location;lat;lon;timestamp;pressure;altitude;pressure_sealevel;temperature;humidity
48810;BME280;40070;47.322;18.784;2023-02-26T00:00:26;991.41;;;5.14;58.86
48810;BME280;40070;47.322;18.784;2023-02-26T00:02:28;991.25;;;5.38;58.81
48810;BME280;40070;47.322;18.784;2023-02-26T00:04:31;991.31;;;5.44;58.71
48810;BME280;40070;47.322;18.784;2023-02-26T00:06:35;991.36;;;5.36;58.90
48810;BME280;40070;47.322;18.784;2023-02-26T00:08:37;991.30;;;5.46;58.45
48810;BME280;40070;47.322;18.784;2023-02-26T00:10:40;991.40;;;4.98;59.48
48810;BME280;40070;47.322;18.784;2023-02-26T00:12:42;991.50;;;4.93;59.65
48810;BME280;40070;47.322;18.784;2023-02-26T00:14:45;991.45;;;5.12;59.11
48810;BME280;40070;47.322;18.784;2023-02-26T00:17:13;991.33;;;5.00;59.48
48810;BME280;40070;47.322;18.784;2023-02-26T00:19:03;991.26;;;4.88;60.08
48810;BME280;40070;47.322;18.784;2023-02-26T00:21:06;991.28;;;4.84;59.89
48810;BME280;40070;47.322;18.784;2023-02-26T00:23:10;991.29;;;4.89;60.12
48810;BME280;40070;47.322;18.784;2023-02-26T00:25:13;991.12;;;4.95;59.98
48810;BME280;40070;47.322;18.784;2023-02-26T00:27:15;991.06;;;4.96;59.74
48810;BME280;40070;47.322;18.784;2023-02-26T00:29:18;991.18;;;4.86;60.11
48810;BME280;40070;47.322;18.784;2023-02-26T00:31:20;991.33;;;4.93;60.11
48810;BME280;40070;47.322;18.784;2023-02-26T00:33:23;991.33;;;4.75;60.37
48810;BME280;40070;47.322;18.784;2023-02-26T00:35:26;991.35;;;5.00;60.35
48810;BME280;40070;47.322;18.784;2023-02-26T00:39:58;991.46;;;5.17;59.82
48810;BME280;40070;47.322;18.784;2023-02-26T00:42:00;991.34;;;5.28;59.58
48810;BME280;40070;47.322;18.784;2023-02-26T00:44:03;991.33;;;5.24;58.91
48810;BME280;40070;47.322;18.784;2023-02-26T00:46:27;991.42;;;5.52;58.48
48810;BME280;40070;47.322;18.784;2023-02-26T00:48:33;991.46;;;5.53;58.32
48810;BME280;40070;47.322;18.784;2023-02-26T00:50:41;991.35;;;5.65;58.02
48810;BME280;40070;47.322;18.784;2023-02-26T00:55:02;991.40;;;5.65;57.63
48810;BME280;40070;47.322;18.784;2023-02-26T00:57:05;991.37;;;5.47;57.76
48810;BME280;40070;47.322;18.784;2023-02-26T00:59:07;991.32;;;5.24;58.44
48810;BME280;40070;47.322;18.784;2023-02-26T01:01:10;991.37;;;5.18;58.80
48810;BME280;40070;47.322;18.784;2023-02-26T01:03:12;991.40;;;5.19;58.69
48810;BME280;40070;47.322;18.784;2023-02-26T01:05:15;991.42;;;5.32;58.43
48810;BME280;40070;47.322;18.784;2023-02-26T01:07:18;991.48;;;5.46;58.39
48810;BME280;40070;47.322;18.784;2023-02-26T01:09:26;991.59;;;5.35;58.44
48810;BME280;40070;47.322;18.784;2023-02-26T01:11:33;991.73;;;5.12;58.82
48810;BME280;40070;47.322;18.784;2023-02-26T01:13:36;991.77;;;5.29;58.36
48810;BME280;40070;47.322;18.784;2023-02-26T01:15:39;991.78;;;5.16;58.98
48810;BME280;40070;47.322;18.784;2023-02-26T01:17:50;991.74;;;5.11;59.17
48810;BME280;40070;47.322;18.784;2023-02-26T01:19:57;991.64;;;5.33;58.40
48810;BME280;40070;47.322;18.784;2023-02-26T01:22:07;991.57;;;5.43;58.38
48810;BME280;40070;47.322;18.784;2023-02-26T01:24:15;991.52;;;5.36;58.26
48810;BME280;40070;47.322;18.784;2023-02-26T01:26:20;991.45;;;5.26;58.54
48810;BME280;40070;47.322;18.784;2023-02-26T01:28:24;991.50;;;4.97;59.54
48810;BME280;40070;47.322;18.784;2023-02-26T01:30:27;991.44;;;5.10;59.57
48810;BME280;40070;47.322;18.784;2023-02-26T01:32:52;991.37;;;5.33;58.83
48810;BME280;40070;47.322;18.784;2023-02-26T01:34:55;991.42;;;5.16;59.21
48810;BME280;40070;47.322;18.784;2023-02-26T01:37:03;991.36;;;5.31;58.99
48810;BME280;40070;47.322;18.784;2023-02-26T01:39:13;991.28;;;5.18;59.35
48810;BME280;40070;47.322;18.784;2023-02-26T01:41:35;991.25;;;5.06;59.78
48810;BME280;40070;47.322;18.784;2023-02-26T01:43:43;991.22;;;4.68;61.03
48810;BME280;40070;47.322;18.784;2023-02-26T01:45:52;991.24;;;4.66;61.12
48810;BME280;40070;47.322;18.784;2023-02-26T01:50:16;991.36;;;4.76;60.95
48810;BME280;40070;47.322;18.784;2023-02-26T01:54:45;991.64;;;4.83;60.76
48810;BME280;40070;47.322;18.784;2023-02-26T01:57:07;991.71;;;5.04;60.48
48810;BME280;40070;47.322;18.784;2023-02-26T01:59:05;991.80;;;4.91;60.34
48810;BME280;40070;47.322;18.784;2023-02-26T02:01:09;991.76;;;4.96;60.30
48810;BME280;40070;47.322;18.784;2023-02-26T02:03:11;991.63;;;4.96;60.49
48810;BME280;40070;47.322;18.784;2023-02-26T02:05:15;991.53;;;5.00;60.48
48810;BME280;40070;47.322;18.784;2023-02-26T02:07:20;991.47;;;4.81;60.48
48810;BME280;40070;47.322;18.784;2023-02-26T02:09:23;991.39;;;4.69;60.94
48810;BME280;40070;47.322;18.784;2023-02-26T02:11:25;991.36;;;4.82;60.63
48810;BME280;40070;47.322;18.784;2023-02-26T02:13:50;991.33;;;4.45;61.36
48810;BME280;40070;47.322;18.784;2023-02-26T02:16:07;991.48;;;4.40;61.86
48810;BME280;40070;47.322;18.784;2023-02-26T02:25:19;991.58;;;4.80;60.70
48810;BME280;40070;47.322;18.784;2023-02-26T02:32:10;991.87;;;4.92;59.82
48810;BME280;40070;47.322;18.784;2023-02-26T02:34:25;991.84;;;5.18;59.54
48810;BME280;40070;47.322;18.784;2023-02-26T02:36:34;991.87;;;5.18;59.28
48810;BME280;40070;47.322;18.784;2023-02-26T02:38:41;991.82;;;5.16;59.49
48810;BME280;40070;47.322;18.784;2023-02-26T02:40:47;991.85;;;4.97;59.62
48810;BME280;40070;47.322;18.784;2023-02-26T02:42:53;991.91;;;4.59;60.87
48810;BME280;40070;47.322;18.784;2023-02-26T02:44:57;991.98;;;4.83;60.40
48810;BME280;40070;47.322;18.784;2023-02-26T02:47:02;992.06;;;4.96;59.83
48810;BME280;40070;47.322;18.784;2023-02-26T02:49:10;992.02;;;4.83;60.10
48810;BME280;40070;47.322;18.784;2023-02-26T02:51:22;992.06;;;4.73;60.41
48810;BME280;40070;47.322;18.784;2023-02-26T02:53:27;992.02;;;5.03;59.59
48810;BME280;40070;47.322;18.784;2023-02-26T02:55:36;991.96;;;4.94;59.70
48810;BME280;40070;47.322;18.784;2023-02-26T02:57:41;992.08;;;4.98;59.47
48810;BME280;40070;47.322;18.784;2023-02-26T02:59:50;992.19;;;4.67;60.51
48810;BME280;40070;47.322;18.784;2023-02-26T03:04:12;992.21;;;4.73;60.20
48810;BME280;40070;47.322;18.784;2023-02-26T03:06:15;992.16;;;4.88;60.18
48810;BME280;40070;47.322;18.784;2023-02-26T03:08:19;992.04;;;4.83;60.43
48810;BME280;40070;47.322;18.784;2023-02-26T03:10:23;991.94;;;4.84;60.19
48810;BME280;40070;47.322;18.784;2023-02-26T03:12:26;992.01;;;4.83;60.18
48810;BME280;40070;47.322;18.784;2023-02-26T03:14:28;992.17;;;4.79;59.99
48810;BME280;40070;47.322;18.784;2023-02-26T03:21:10;992.21;;;5.08;59.32
48810;BME280;40070;47.322;18.784;2023-02-26T03:23:18;992.33;;;4.97;59.48
48810;BME280;40070;47.322;18.784;2023-02-26T03:30:18;992.40;;;5.16;58.97
48810;BME280;40070;47.322;18.784;2023-02-26T03:32:32;992.40;;;5.19;58.89
48810;BME280;40070;47.322;18.784;2023-02-26T03:34:39;992.31;;;5.57;58.05
48810;BME280;40070;47.322;18.784;2023-02-26T03:37:05;992.40;;;5.70;57.68
48810;BME280;40070;47.322;18.784;2023-02-26T03:38:58;992.59;;;5.71;57.70
48810;BME280;40070;47.322;18.784;2023-02-26T03:41:05;992.60;;;5.69;57.29
48810;BME280;40070;47.322;18.784;2023-02-26T03:43:12;992.56;;;5.62;56.98
48810;BME280;40070;47.322;18.784;2023-02-26T03:45:20;992.54;;;5.33;57.59
48810;BME280;40070;47.322;18.784;2023-02-26T03:47:25;992.62;;;5.20;57.83
48810;BME280;40070;47.322;18.784;2023-02-26T03:49:32;992.74;;;5.27;58.06
48810;BME280;40070;47.322;18.784;2023-02-26T03:51:35;992.75;;;5.10;58.40
48810;BME280;40070;47.322;18.784;2023-02-26T03:53:44;992.56;;;4.86;59.00
48810;BME280;40070;47.322;18.784;2023-02-26T03:56:17;992.39;;;4.84;58.98
48810;BME280;40070;47.322;18.784;2023-02-26T03:58:05;992.33;;;4.93;58.99
48810;BME280;40070;47.322;18.784;2023-02-26T04:00:08;992.32;;;4.77;58.86
48810;BME280;40070;47.322;18.784;2023-02-26T04:04:27;992.38;;;5.04;58.60
48810;BME280;40070;47.322;18.784;2023-02-26T04:06:31;992.42;;;4.87;58.83
48810;BME280;40070;47.322;18.784;2023-02-26T04:08:35;992.41;;;4.86;58.73
48810;BME280;40070;47.322;18.784;2023-02-26T04:10:57;992.53;;;4.92;58.49
48810;BME280;40070;47.322;18.784;2023-02-26T04:12:57;992.57;;;5.08;58.33
48810;BME280;40070;47.322;18.784;2023-02-26T04:15:00;992.63;;;5.08;58.02
48810;BME280;40070;47.322;18.784;2023-02-26T04:17:02;992.70;;;5.14;57.68
48810;BME280;40070;47.322;18.784;2023-02-26T04:19:05;992.87;;;4.81;58.55
48810;BME280;40070;47.322;18.784;2023-02-26T04:21:11;993.10;;;4.67;58.69
48810;BME280;40070;47.322;18.784;2023-02-26T04:23:13;993.15;;;4.77;58.51
48810;BME280;40070;47.322;18.784;2023-02-26T04:25:16;993.17;;;4.32;59.46
48810;BME280;40070;47.322;18.784;2023-02-26T04:27:18;993.08;;;4.32;59.83
48810;BME280;40070;47.322;18.784;2023-02-26T04:29:21;993.08;;;4.70;58.98
48810;BME280;40070;47.322;18.784;2023-02-26T04:31:23;993.22;;;4.86;58.28
48810;BME280;40070;47.322;18.784;2023-02-26T04:33:25;993.25;;;5.11;57.86
48810;BME280;40070;47.322;18.784;2023-02-26T04:35:28;993.27;;;5.11;57.30
48810;BME280;40070;47.322;18.784;2023-02-26T04:37:30;993.25;;;5.06;57.91
48810;BME280;40070;47.322;18.784;2023-02-26T04:39:32;993.35;;;5.07;57.95
48810;BME280;40070;47.322;18.784;2023-02-26T04:41:35;993.23;;;5.24;57.46
48810;BME280;40070;47.322;18.784;2023-02-26T04:43:37;993.21;;;5.31;56.94
48810;BME280;40070;47.322;18.784;2023-02-26T04:45:40;993.21;;;5.07;57.64
48810;BME280;40070;47.322;18.784;2023-02-26T04:47:42;993.14;;;4.92;58.10
48810;BME280;40070;47.322;18.784;2023-02-26T04:49:44;993.07;;;5.23;57.57
48810;BME280;40070;47.322;18.784;2023-02-26T04:51:47;993.16;;;5.00;58.15
48810;BME280;40070;47.322;18.784;2023-02-26T04:53:49;993.23;;;4.87;58.47
48810;BME280;40070;47.322;18.784;2023-02-26T04:55:52;993.15;;;4.97;58.40
48810;BME280;40070;47.322;18.784;2023-02-26T04:57:54;993.14;;;5.07;58.24
48810;BME280;40070;47.322;18.784;2023-02-26T04:59:57;993.00;;;5.15;58.03
48810;BME280;40070;47.322;18.784;2023-02-26T05:01:59;992.93;;;4.83;58.80
48810;BME280;40070;47.322;18.784;2023-02-26T05:04:01;993.07;;;5.12;58.44
48810;BME280;40070;47.322;18.784;2023-02-26T05:06:04;993.14;;;5.04;58.31
48810;BME280;40070;47.322;18.784;2023-02-26T05:08:06;993.11;;;5.26;57.99
48810;BME280;40070;47.322;18.784;2023-02-26T05:10:09;993.07;;;5.40;57.71
48810;BME280;40070;47.322;18.784;2023-02-26T05:12:11;993.11;;;5.18;58.07
48810;BME280;40070;47.322;18.784;2023-02-26T05:14:14;993.15;;;5.12;58.34
48810;BME280;40070;47.322;18.784;2023-02-26T05:16:17;993.17;;;5.17;58.41
48810;BME280;40070;47.322;18.784;2023-02-26T05:18:19;993.21;;;5.18;57.90
48810;BME280;40070;47.322;18.784;2023-02-26T05:20:21;993.29;;;5.17;58.03
48810;BME280;40070;47.322;18.784;2023-02-26T05:22:24;993.41;;;4.73;59.20
48810;BME280;40070;47.322;18.784;2023-02-26T05:24:26;993.50;;;4.83;59.13
48810;BME280;40070;47.322;18.784;2023-02-26T05:26:28;993.52;;;4.89;58.89
48810;BME280;40070;47.322;18.784;2023-02-26T05:28:31;993.51;;;4.53;59.72
48810;BME280;40070;47.322;18.784;2023-02-26T05:30:33;993.49;;;4.56;59.87
48810;BME280;40070;47.322;18.784;2023-02-26T05:32:35;993.47;;;4.50;59.88
48810;BME280;40070;47.322;18.784;2023-02-26T05:34:38;993.45;;;4.18;60.91
48810;BME280;40070;47.322;18.784;2023-02-26T05:36:40;993.53;;;4.35;60.41
48810;BME280;40070;47.322;18.784;2023-02-26T05:38:42;993.58;;;4.26;60.77
48810;BME280;40070;47.322;18.784;2023-02-26T05:40:45;993.56;;;3.90;61.62
48810;BME280;40070;47.322;18.784;2023-02-26T05:42:47;993.63;;;3.97;61.83
48810;BME280;40070;47.322;18.784;2023-02-26T05:44:50;993.77;;;4.13;61.39
48810;BME280;40070;47.322;18.784;2023-02-26T05:46:52;993.74;;;4.18;61.20
48810;BME280;40070;47.322;18.784;2023-02-26T05:48:54;993.76;;;4.27;60.75
48810;BME280;40070;47.322;18.784;2023-02-26T05:50:57;993.70;;;4.13;60.78
48810;BME280;40070;47.322;18.784;2023-02-26T05:52:59;993.61;;;4.10;60.78
48810;BME280;40070;47.322;18.784;2023-02-26T05:55:01;993.64;;;4.11;60.73
48810;BME280;40070;47.322;18.784;2023-02-26T05:57:04;993.68;;;4.08;60.84
48810;BME280;40070;47.322;18.784;2023-02-26T05:59:06;993.72;;;4.19;60.48
48810;BME280;40070;47.322;18.784;2023-02-26T06:01:08;993.68;;;3.93;61.41
48810;BME280;40070;47.322;18.784;2023-02-26T06:03:11;993.71;;;4.10;60.87
48810;BME280;40070;47.322;18.784;2023-02-26T06:05:13;993.73;;;4.02;61.11
48810;BME280;40070;47.322;18.784;2023-02-26T06:07:16;993.81;;;3.91;61.20
48810;BME280;40070;47.322;18.784;2023-02-26T06:09:18;993.82;;;3.88;61.60
48810;BME280;40070;47.322;18.784;2023-02-26T06:11:20;993.78;;;3.76;61.89
48810;BME280;40070;47.322;18.784;2023-02-26T06:13:23;993.83;;;3.85;61.91
48810;BME280;40070;47.322;18.784;2023-02-26T06:15:25;993.93;;;3.82;62.01
48810;BME280;40070;47.322;18.784;2023-02-26T06:17:27;993.95;;;4.05;61.49
48810;BME280;40070;47.322;18.784;2023-02-26T06:19:30;993.95;;;3.94;61.60
48810;BME280;40070;47.322;18.784;2023-02-26T06:21:32;993.96;;;3.98;61.41
48810;BME280;40070;47.322;18.784;2023-02-26T06:23:34;993.97;;;3.97;61.37
48810;BME280;40070;47.322;18.784;2023-02-26T06:25:37;993.98;;;4.06;61.40
48810;BME280;40070;47.322;18.784;2023-02-26T06:27:39;993.94;;;3.92;61.82
48810;BME280;40070;47.322;18.784;2023-02-26T06:29:41;993.98;;;4.02;61.85
48810;BME280;40070;47.322;18.784;2023-02-26T06:31:44;993.97;;;4.21;61.24
48810;BME280;40070;47.322;18.784;2023-02-26T06:33:47;994.06;;;4.13;61.27
48810;BME280;40070;47.322;18.784;2023-02-26T06:35:49;994.22;;;4.21;61.09
48810;BME280;40070;47.322;18.784;2023-02-26T06:37:52;994.31;;;4.28;61.14
48810;BME280;40070;47.322;18.784;2023-02-26T06:39:54;994.29;;;4.53;60.48
48810;BME280;40070;47.322;18.784;2023-02-26T06:41:56;994.34;;;4.52;60.55
48810;BME280;40070;47.322;18.784;2023-02-26T06:43:59;994.37;;;4.37;60.64
48810;BME280;40070;47.322;18.784;2023-02-26T06:46:01;994.30;;;4.15;61.42
48810;BME280;40070;47.322;18.784;2023-02-26T06:48:04;994.27;;;4.35;60.69
48810;BME280;40070;47.322;18.784;2023-02-26T06:50:06;994.32;;;4.38;60.92
48810;BME280;40070;47.322;18.784;2023-02-26T06:52:09;994.37;;;4.34;60.75
48810;BME280;40070;47.322;18.784;2023-02-26T06:54:11;994.30;;;4.28;61.04
48810;BME280;40070;47.322;18.784;2023-02-26T06:56:14;994.23;;;4.21;61.48
48810;BME280;40070;47.322;18.784;2023-02-26T06:58:16;994.26;;;3.96;62.10
48810;BME280;40070;47.322;18.784;2023-02-26T07:00:19;994.28;;;4.05;61.89
48810;BME280;40070;47.322;18.784;2023-02-26T07:02:21;994.33;;;3.93;62.45
48810;BME280;40070;47.322;18.784;2023-02-26T07:04:24;994.41;;;3.99;62.23
48810;BME280;40070;47.322;18.784;2023-02-26T07:06:26;994.35;;;3.98;62.43
48810;BME280;40070;47.322;18.784;2023-02-26T07:08:29;994.29;;;3.77;62.97
48810;BME280;40070;47.322;18.784;2023-02-26T07:10:31;994.23;;;3.80;63.05
48810;BME280;40070;47.322;18.784;2023-02-26T07:12:34;994.23;;;3.98;62.78
48810;BME280;40070;47.322;18.784;2023-02-26T07:14:36;994.23;;;3.95;62.63
48810;BME280;40070;47.322;18.784;2023-02-26T07:16:38;994.28;;;3.84;62.81
48810;BME280;40070;47.322;18.784;2023-02-26T07:18:41;994.27;;;3.88;63.00
48810;BME280;40070;47.322;18.784;2023-02-26T07:20:43;994.28;;;3.94;62.74
48810;BME280;40070;47.322;18.784;2023-02-26T07:22:46;994.24;;;4.11;62.63
48810;BME280;40070;47.322;18.784;2023-02-26T07:24:48;994.13;;;4.17;62.43
48810;BME280;40070;47.322;18.784;2023-02-26T07:26:51;994.11;;;4.10;62.58
48810;BME280;40070;47.322;18.784;2023-02-26T07:28:53;994.29;;;4.19;62.25
48810;BME280;40070;47.322;18.784;2023-02-26T07:30:55;994.47;;;4.35;61.94
48810;BME280;40070;47.322;18.784;2023-02-26T07:32:58;994.48;;;4.24;61.89
48810;BME280;40070;47.322;18.784;2023-02-26T07:35:01;994.30;;;4.33;61.93
48810;BME280;40070;47.322;18.784;2023-02-26T07:37:03;994.35;;;4.32;61.94
48810;BME280;40070;47.322;18.784;2023-02-26T07:39:05;994.33;;;4.48;61.87
48810;BME280;40070;47.322;18.784;2023-02-26T07:41:08;994.21;;;4.55;61.23
48810;BME280;40070;47.322;18.784;2023-02-26T07:43:10;994.32;;;4.33;61.96
48810;BME280;40070;47.322;18.784;2023-02-26T07:45:12;994.28;;;4.32;61.98
48810;BME280;40070;47.322;18.784;2023-02-26T07:47:15;994.27;;;4.41;61.91
48810;BME280;40070;47.322;18.784;2023-02-26T07:49:17;994.28;;;4.51;61.67
48810;BME280;40070;47.322;18.784;2023-02-26T07:51:20;994.37;;;4.47;61.32
48810;BME280;40070;47.322;18.784;2023-02-26T07:53:22;994.51;;;4.22;62.12
48810;BME280;40070;47.322;18.784;2023-02-26T07:55:24;994.44;;;4.31;62.25
48810;BME280;40070;47.322;18.784;2023-02-26T07:57:27;994.32;;;4.54;61.72
48810;BME280;40070;47.322;18.784;2023-02-26T07:59:29;994.35;;;4.70;61.03
48810;BME280;40070;47.322;18.784;2023-02-26T08:01:31;994.40;;;4.57;61.49
48810;BME280;40070;47.322;18.784;2023-02-26T08:03:34;994.28;;;4.46;61.57
48810;BME280;40070;47.322;18.784;2023-02-26T08:05:36;994.31;;;4.69;61.18
48810;BME280;40070;47.322;18.784;2023-02-26T08:07:38;994.29;;;4.61;61.37
48810;BME280;40070;47.322;18.784;2023-02-26T08:09:41;994.33;;;4.77;60.92
48810;BME280;40070;47.322;18.784;2023-02-26T08:11:43;994.38;;;4.82;60.29
48810;BME280;40070;47.322;18.784;2023-02-26T08:13:45;994.51;;;4.93;59.97
48810;BME280;40070;47.322;18.784;2023-02-26T08:15:48;994.44;;;4.45;60.54
48810;BME280;40070;47.322;18.784;2023-02-26T08:17:51;994.49;;;4.49;60.90
48810;BME280;40070;47.322;18.784;2023-02-26T08:19:53;994.48;;;4.56;60.67
48810;BME280;40070;47.322;18.784;2023-02-26T08:21:56;994.44;;;4.56;60.54
48810;BME280;40070;47.322;18.784;2023-02-26T08:23:58;994.38;;;4.48;60.99
48810;BME280;40070;47.322;18.784;2023-02-26T08:26:01;994.40;;;4.49;61.02
48810;BME280;40070;47.322;18.784;2023-02-26T08:28:03;994.44;;;4.59;61.00
48810;BME280;40070;47.322;18.784;2023-02-26T08:30:06;994.54;;;4.70;60.64
48810;BME280;40070;47.322;18.784;2023-02-26T08:32:09;994.61;;;4.70;60.22
48810;BME280;40070;47.322;18.784;2023-02-26T08:34:11;994.59;;;4.67;60.48
48810;BME280;40070;47.322;18.784;2023-02-26T08:36:14;994.58;;;4.54;60.63
48810;BME280;40070;47.322;18.784;2023-02-26T08:38:16;994.58;;;4.48;60.75
48810;BME280;40070;47.322;18.784;2023-02-26T08:40:19;994.60;;;4.76;60.14
48810;BME280;40070;47.322;18.784;2023-02-26T08:42:21;994.71;;;4.62;60.56
48810;BME280;40070;47.322;18.784;2023-02-26T08:44:23;994.74;;;4.72;60.61
48810;BME280;40070;47.322;18.784;2023-02-26T08:46:26;994.77;;;4.75;60.13
48810;BME280;40070;47.322;18.784;2023-02-26T08:48:28;994.77;;;4.68;60.23
48810;BME280;40070;47.322;18.784;2023-02-26T08:50:30;994.79;;;4.78;60.08
48810;BME280;40070;47.322;18.784;2023-02-26T08:52:36;994.83;;;4.80;60.38
48810;BME280;40070;47.322;18.784;2023-02-26T08:54:38;994.94;;;4.81;59.39
48810;BME280;40070;47.322;18.784;2023-02-26T08:56:40;994.80;;;4.95;58.55
48810;BME280;40070;47.322;18.784;2023-02-26T08:58:43;994.83;;;4.80;58.99
48810;BME280;40070;47.322;18.784;2023-02-26T09:00:45;994.77;;;5.02;58.64
48810;BME280;40070;47.322;18.784;2023-02-26T09:02:48;994.78;;;5.07;58.54
48810;BME280;40070;47.322;18.784;2023-02-26T09:04:50;994.81;;;5.19;58.08
48810;BME280;40070;47.322;18.784;2023-02-26T09:06:53;994.88;;;5.41;57.69
48810;BME280;40070;47.322;18.784;2023-02-26T09:08:55;994.87;;;5.21;57.60
48810;BME280;40070;47.322;18.784;2023-02-26T09:10:58;994.92;;;5.17;57.46
48810;BME280;40070;47.322;18.784;2023-02-26T09:13:00;994.95;;;5.15;57.79
48810;BME280;40070;47.322;18.784;2023-02-26T09:15:03;994.97;;;5.09;57.54
48810;BME280;40070;47.322;18.784;2023-02-26T09:17:06;994.97;;;5.12;57.43
48810;BME280;40070;47.322;18.784;2023-02-26T09:19:08;995.03;;;5.22;57.26
48810;BME280;40070;47.322;18.784;2023-02-26T09:21:10;995.04;;;5.16;57.52
48810;BME280;40070;47.322;18.784;2023-02-26T09:23:13;994.99;;;5.31;57.39
48810;BME280;40070;47.322;18.784;2023-02-26T09:25:15;994.95;;;5.49;56.92
48810;BME280;40070;47.322;18.784;2023-02-26T09:27:17;995.11;;;5.34;57.31
48810;BME280;40070;47.322;18.784;2023-02-26T09:29:20;995.04;;;5.38;56.63
48810;BME280;40070;47.322;18.784;2023-02-26T09:31:22;995.03;;;5.22;56.35
48810;BME280;40070;47.322;18.784;2023-02-26T09:33:24;995.08;;;5.40;56.04
48810;BME280;40070;47.322;18.784;2023-02-26T09:35:27;995.10;;;5.53;56.41
48810;BME280;40070;47.322;18.784;2023-02-26T09:37:29;995.13;;;5.60;55.89
48810;BME280;40070;47.322;18.784;2023-02-26T09:39:32;995.16;;;5.86;54.97
48810;BME280;40070;47.322;18.784;2023-02-26T09:41:42;995.15;;;5.70;55.12
48810;BME280;40070;47.322;18.784;2023-02-26T09:46:09;994.97;;;5.99;54.53
48810;BME280;40070;47.322;18.784;2023-02-26T09:48:14;994.99;;;6.12;53.82
48810;BME280;40070;47.322;18.784;2023-02-26T09:50:19;995.06;;;5.97;54.31
48810;BME280;40070;47.322;18.784;2023-02-26T09:52:27;995.00;;;5.87;54.39
48810;BME280;40070;47.322;18.784;2023-02-26T09:54:32;995.04;;;5.84;54.87
48810;BME280;40070;47.322;18.784;2023-02-26T09:56:37;995.04;;;6.02;54.56
48810;BME280;40070;47.322;18.784;2023-02-26T09:58:40;995.06;;;6.30;54.13
48810;BME280;40070;47.322;18.784;2023-02-26T10:00:44;995.12;;;6.30;53.37
48810;BME280;40070;47.322;18.784;2023-02-26T10:02:54;995.15;;;6.43;53.26
48810;BME280;40070;47.322;18.784;2023-02-26T10:07:20;995.35;;;6.53;53.19
48810;BME280;40070;47.322;18.784;2023-02-26T10:09:28;995.39;;;6.63;53.18
48810;BME280;40070;47.322;18.784;2023-02-26T10:13:55;995.52;;;6.53;53.46
48810;BME280;40070;47.322;18.784;2023-02-26T10:16:00;995.58;;;6.51;53.02
48810;BME280;40070;47.322;18.784;2023-02-26T10:18:10;995.57;;;6.67;52.64
48810;BME280;40070;47.322;18.784;2023-02-26T10:20:19;995.57;;;6.57;52.67
48810;BME280;40070;47.322;18.784;2023-02-26T10:24:39;995.64;;;6.65;52.74
48810;BME280;40070;47.322;18.784;2023-02-26T10:27:17;995.63;;;6.52;52.64
48810;BME280;40070;47.322;18.784;2023-02-26T10:29:18;995.69;;;6.70;52.38
48810;BME280;40070;47.322;18.784;2023-02-26T10:31:33;995.68;;;6.67;52.19
48810;BME280;40070;47.322;18.784;2023-02-26T10:33:46;995.57;;;7.06;51.83
48810;BME280;40070;47.322;18.784;2023-02-26T10:35:56;995.64;;;7.12;52.08
48810;BME280;40070;47.322;18.784;2023-02-26T10:38:02;995.70;;;7.42;51.61
48810;BME280;40070;47.322;18.784;2023-02-26T10:40:13;995.69;;;7.57;50.42
48810;BME280;40070;47.322;18.784;2023-02-26T10:42:22;995.72;;;7.48;50.41
48810;BME280;40070;47.322;18.784;2023-02-26T10:50:07;995.83;;;7.54;49.41
48810;BME280;40070;47.322;18.784;2023-02-26T10:51:31;995.87;;;7.60;49.22
48810;BME280;40070;47.322;18.784;2023-02-26T10:53:35;995.81;;;7.50;49.70
48810;BME280;40070;47.322;18.784;2023-02-26T10:55:45;995.82;;;7.46;48.50
48810;BME280;40070;47.322;18.784;2023-02-26T10:57:55;995.88;;;7.53;48.45
48810;BME280;40070;47.322;18.784;2023-02-26T11:00:02;995.87;;;7.70;48.84
48810;BME280;40070;47.322;18.784;2023-02-26T11:02:27;995.85;;;7.72;49.27
48810;BME280;40070;47.322;18.784;2023-02-26T11:04:20;995.86;;;7.69;48.60
48810;BME280;40070;47.322;18.784;2023-02-26T11:06:26;995.79;;;7.65;49.26
48810;BME280;40070;47.322;18.784;2023-02-26T11:08:31;995.80;;;7.76;49.25
48810;BME280;40070;47.322;18.784;2023-02-26T11:10:38;995.91;;;7.75;48.65
48810;BME280;40070;47.322;18.784;2023-02-26T11:12:41;995.90;;;7.36;48.17
48810;BME280;40070;47.322;18.784;2023-02-26T11:14:44;995.99;;;7.27;48.43
48810;BME280;40070;47.322;18.784;2023-02-26T11:16:51;995.94;;;7.47;48.95
48810;BME280;40070;47.322;18.784;2023-02-26T11:18:54;996.02;;;7.58;49.05
48810;BME280;40070;47.322;18.784;2023-02-26T11:20:59;996.01;;;7.64;48.75
48810;BME280;40070;47.322;18.784;2023-02-26T11:23:03;996.05;;;7.56;49.14
48810;BME280;40070;47.322;18.784;2023-02-26T11:25:06;996.02;;;7.59;49.11
48810;BME280;40070;47.322;18.784;2023-02-26T11:27:29;996.07;;;7.58;49.15
48810;BME280;40070;47.322;18.784;2023-02-26T11:29:26;996.08;;;7.50;49.57
48810;BME280;40070;47.322;18.784;2023-02-26T11:31:28;996.15;;;7.58;49.28
48810;BME280;40070;47.322;18.784;2023-02-26T11:33:38;996.14;;;7.56;49.32
48810;BME280;40070;47.322;18.784;2023-02-26T11:35:40;996.14;;;7.72;49.05
48810;BME280;40070;47.322;18.784;2023-02-26T11:37:47;996.12;;;7.68;48.79
48810;BME280;40070;47.322;18.784;2023-02-26T11:39:57;996.10;;;7.87;48.62
48810;BME280;40070;47.322;18.784;2023-02-26T11:42:00;996.17;;;7.94;47.63
48810;BME280;40070;47.322;18.784;2023-02-26T11:44:06;996.10;;;8.28;47.56
48810;BME280;40070;47.322;18.784;2023-02-26T11:46:09;996.07;;;8.02;47.27
48810;BME280;40070;47.322;18.784;2023-02-26T11:48:14;996.12;;;8.22;47.38
48810;BME280;40070;47.322;18.784;2023-02-26T11:50:19;996.12;;;8.05;47.42
48810;BME280;40070;47.322;18.784;2023-02-26T11:52:33;996.17;;;8.14;47.22
48810;BME280;40070;47.322;18.784;2023-02-26T11:54:37;996.14;;;8.13;46.42
48810;BME280;40070;47.322;18.784;2023-02-26T11:56:40;996.15;;;8.05;46.65
48810;BME280;40070;47.322;18.784;2023-02-26T11:58:44;996.11;;;8.16;46.70
48810;BME280;40070;47.322;18.784;2023-02-26T12:00:47;996.11;;;8.15;45.75
48810;BME280;40070;47.322;18.784;2023-02-26T12:02:49;996.16;;;8.11;46.07
48810;BME280;40070;47.322;18.784;2023-02-26T12:04:56;996.19;;;8.27;45.73
48810;BME280;40070;47.322;18.784;2023-02-26T12:07:00;996.13;;;8.31;45.04